createdAt,value
2023-01-07T00:32:06.551Z,9.711656
2023-01-07T00:33:06.522Z,9.711640
2023-01-07T00:34:06.533Z,9.711631
2023-01-07T00:35:06.519Z,9.711625
2023-01-07T00:36:06.516Z,9.711619
2023-01-07T00:37:06.500Z,9.711570
2023-01-07T00:38:06.500Z,9.711557
2023-01-07T00:39:06.491Z,9.711727
2023-01-07T00:40:06.485Z,9.711705
2023-01-07T00:41:06.461Z,9.711625
2023-01-07T00:42:06.487Z,9.711651
2023-01-07T00:43:06.551Z,9.711562
2023-01-07T00:44:07.169Z,9.711560
2023-01-07T00:45:07.168Z,9.711549
2023-01-07T00:46:06.431Z,9.711645
2023-01-07T00:47:06.437Z,9.711839
2023-01-07T00:48:07.226Z,9.711970
2023-01-07T00:49:06.398Z,9.711946
2023-01-07T00:50:10.151Z,9.711694
2023-01-07T00:51:06.395Z,9.711772
2023-01-07T00:52:08.224Z,9.711927
2023-01-07T00:53:10.212Z,9.711838
2023-01-07T00:54:06.360Z,9.711924
2023-01-07T00:55:08.245Z,9.712178
2023-01-07T00:56:07.234Z,9.712053
2023-01-07T00:57:06.343Z,9.711984
2023-01-07T00:58:06.328Z,9.711953
2023-01-07T00:59:06.332Z,9.711797
2023-01-07T01:00:06.320Z,9.712017
2023-01-07T01:01:06.444Z,9.711845
2023-01-07T01:02:06.521Z,9.711914
2023-01-07T01:03:06.291Z,9.711864
2023-01-07T01:04:06.276Z,9.711942
2023-01-07T01:05:06.279Z,9.711871
2023-01-07T01:06:07.288Z,9.711679
2023-01-07T01:07:06.257Z,9.711710
2023-01-07T01:08:06.247Z,9.711838
2023-01-07T01:09:06.244Z,9.711902
2023-01-07T01:10:06.237Z,9.711754
2023-01-07T01:11:06.246Z,9.711658
2023-01-07T01:12:06.216Z,9.711866
2023-01-07T01:13:06.204Z,9.712012
2023-01-07T01:14:06.223Z,9.711813
2023-01-07T01:15:06.289Z,9.711829
2023-01-07T01:16:06.222Z,9.712011
2023-01-07T01:17:06.182Z,9.711925
2023-01-07T01:18:06.165Z,9.711904
2023-01-07T01:19:07.176Z,9.711841
2023-01-07T01:20:06.147Z,9.711877
2023-01-07T01:21:06.152Z,9.711843
2023-01-07T01:22:06.140Z,9.711926
2023-01-07T01:23:06.123Z,9.711945
2023-01-07T01:24:06.131Z,9.712074
2023-01-07T01:25:06.109Z,9.711931
2023-01-07T01:26:06.109Z,9.711776
2023-01-07T01:27:06.110Z,9.711613
2023-01-07T01:28:06.089Z,9.711678
2023-01-07T01:29:06.075Z,9.711763
2023-01-07T01:30:06.070Z,9.711905
2023-01-07T01:31:06.203Z,9.711780
2023-01-07T01:32:06.048Z,9.711835
2023-01-07T01:33:07.049Z,9.711830
2023-01-07T01:34:06.046Z,9.711756
2023-01-07T01:35:06.029Z,9.711698
2023-01-07T01:36:06.015Z,9.711699
2023-01-07T01:37:06.015Z,9.711692
2023-01-07T01:38:05.998Z,9.711679
2023-01-07T01:39:05.995Z,9.711680
2023-01-07T01:40:05.976Z,9.711685
2023-01-07T01:41:05.992Z,9.711622
2023-01-07T01:42:05.960Z,9.711713
2023-01-07T01:43:05.963Z,9.711706
2023-01-07T01:44:05.963Z,9.711671
2023-01-07T01:45:05.935Z,9.711630
2023-01-07T01:46:05.926Z,9.711640
2023-01-07T01:47:06.052Z,9.711603
2023-01-07T01:48:05.912Z,9.711646
2023-01-07T01:49:05.920Z,9.711687
2023-01-07T01:50:05.908Z,9.711669
2023-01-07T01:51:05.904Z,9.711713
2023-01-07T01:52:05.881Z,9.711582
2023-01-07T01:53:05.876Z,9.711692
2023-01-07T01:54:05.892Z,9.711696
2023-01-07T01:55:05.861Z,9.711655
2023-01-07T01:56:05.872Z,9.711720
2023-01-07T01:57:06.672Z,9.711698
2023-01-07T01:58:05.828Z,9.711647
2023-01-07T01:59:05.820Z,9.711904
2023-01-07T02:00:06.759Z,9.711658
2023-01-07T02:01:06.010Z,9.711634
2023-01-07T02:02:05.984Z,9.711780
2023-01-07T02:03:06.790Z,9.711651
2023-01-07T02:04:05.779Z,9.711674
2023-01-07T02:05:05.798Z,9.711699
2023-01-07T02:06:06.754Z,9.711953
2023-01-07T02:07:05.766Z,9.711823
2023-01-07T02:08:05.750Z,9.711736
2023-01-07T02:09:06.664Z,9.711683
2023-01-07T02:10:05.748Z,9.711825
2023-01-07T02:11:05.736Z,9.711811
2023-01-07T02:12:05.761Z,9.711776
2023-01-07T02:13:05.708Z,9.711930
2023-01-07T02:14:05.702Z,9.711803
2023-01-07T02:15:05.704Z,9.711679
2023-01-07T02:16:05.758Z,9.711638
2023-01-07T02:17:05.686Z,9.711678
2023-01-07T02:18:05.671Z,9.711717
2023-01-07T02:19:05.762Z,9.711718
2023-01-07T02:20:05.652Z,9.711540
2023-01-07T02:21:05.642Z,9.711572
2023-01-07T02:22:05.623Z,9.711615
2023-01-07T02:23:05.620Z,9.711542
2023-01-07T02:24:05.630Z,9.711617
2023-01-07T02:25:05.612Z,9.711618
2023-01-07T02:26:05.599Z,9.711654
2023-01-07T02:27:05.611Z,9.711690
2023-01-07T02:28:05.587Z,9.711624
2023-01-07T02:29:05.578Z,9.711559
2023-01-07T02:30:05.562Z,9.711612
2023-01-07T02:31:05.558Z,9.711700
2023-01-07T02:32:05.561Z,9.711750
2023-01-07T02:33:05.555Z,9.711669
2023-01-07T02:34:05.537Z,9.711667
2023-01-07T02:35:05.649Z,9.711587
2023-01-07T02:36:05.512Z,9.711623
2023-01-07T02:37:06.173Z,9.711584
2023-01-07T02:38:05.506Z,9.711604
2023-01-07T02:39:05.513Z,9.711754
2023-01-07T02:40:06.235Z,9.711745
2023-01-07T02:41:06.484Z,9.711802
2023-01-07T02:42:05.476Z,9.711720
2023-01-07T02:43:05.463Z,9.711636
2023-01-07T02:44:06.252Z,9.711637
2023-01-07T02:45:05.445Z,9.711929
2023-01-07T02:46:05.506Z,9.711860
2023-01-07T02:47:05.438Z,9.711922
2023-01-07T02:48:05.429Z,9.711730
2023-01-07T02:49:05.421Z,9.711698
2023-01-07T02:50:05.412Z,9.711802
2023-01-07T02:51:06.274Z,9.711777
2023-01-07T02:52:06.240Z,9.711979
2023-01-07T02:53:06.388Z,9.711784
2023-01-07T02:54:05.386Z,9.711926
2023-01-07T02:55:05.379Z,9.711954
2023-01-07T02:56:05.377Z,9.712109
2023-01-07T02:57:05.360Z,9.712170
2023-01-07T02:58:05.345Z,9.711943
2023-01-07T02:59:05.336Z,9.711848
2023-01-07T03:00:05.331Z,9.711602
2023-01-07T03:01:05.523Z,9.711474
2023-01-07T03:02:05.408Z,9.711653
2023-01-07T03:03:05.312Z,9.711740
2023-01-07T03:04:05.416Z,9.711678
2023-01-07T03:05:05.306Z,9.711402
2023-01-07T03:06:05.290Z,9.711431
2023-01-07T03:07:05.373Z,9.711881
2023-01-07T03:08:05.281Z,9.711829
2023-01-07T03:09:05.254Z,9.711637
2023-01-07T03:10:05.303Z,9.711787
2023-01-07T03:11:05.244Z,9.711756
2023-01-07T03:12:05.228Z,9.711782
2023-01-07T03:13:05.229Z,9.711793
2023-01-07T03:14:05.222Z,9.711683
2023-01-07T03:15:05.201Z,9.711782
2023-01-07T03:16:05.251Z,9.711731
2023-01-07T03:17:05.188Z,9.711767
2023-01-07T03:18:05.184Z,9.711694
2023-01-07T03:19:05.185Z,9.711693
2023-01-07T03:20:05.165Z,9.711613
2023-01-07T03:21:05.154Z,9.711708
2023-01-07T03:22:05.171Z,9.711685
2023-01-07T03:23:05.244Z,9.711827
2023-01-07T03:24:05.142Z,9.711667
2023-01-07T03:25:05.136Z,9.711620
2023-01-07T03:26:05.107Z,9.711621
2023-01-07T03:27:05.111Z,9.711616
2023-01-07T03:28:05.118Z,9.711734
2023-01-07T03:29:05.767Z,9.711970
2023-01-07T03:30:05.097Z,9.711862
2023-01-07T03:31:06.701Z,9.711961
2023-01-07T03:32:05.145Z,9.711891
2023-01-07T03:33:05.070Z,9.711900
2023-01-07T03:34:05.051Z,9.711998
2023-01-07T03:35:05.055Z,9.712000
2023-01-07T03:36:05.062Z,9.712092
2023-01-07T03:37:05.034Z,9.712093
2023-01-07T03:38:05.028Z,9.712077
2023-01-07T03:39:05.109Z,9.712238
2023-01-07T03:40:05.017Z,9.712346
2023-01-07T03:41:06.006Z,9.712318
2023-01-07T03:49:13.389Z,9.711790
2023-01-07T03:50:13.381Z,9.711653
2023-01-07T03:51:14.210Z,9.711806
2023-01-07T03:52:13.371Z,9.711781
2023-01-07T03:53:13.361Z,9.711830
2023-01-07T03:54:13.460Z,9.711788
2023-01-07T03:55:13.352Z,9.711792
2023-01-07T03:56:13.329Z,9.711699
2023-01-07T03:57:13.325Z,9.711674
2023-01-07T03:58:13.319Z,9.711649
2023-01-07T03:59:13.299Z,9.711738
2023-01-07T04:00:13.310Z,9.711705
2023-01-07T04:01:13.361Z,9.711708
2023-01-07T04:02:13.410Z,9.711654
2023-01-07T04:03:13.273Z,9.711608
2023-01-07T04:04:13.289Z,9.711573
2023-01-07T04:05:14.265Z,9.711599
2023-01-07T04:06:13.249Z,9.711675
2023-01-07T04:07:13.244Z,9.711629
2023-01-07T04:08:13.244Z,9.711702
2023-01-07T04:09:13.225Z,9.711757
2023-01-07T04:10:14.344Z,9.711621
2023-01-07T04:11:13.211Z,9.711631
2023-01-07T04:12:13.203Z,9.711894
2023-01-07T04:13:13.210Z,9.711679
2023-01-07T04:14:13.801Z,9.711704
2023-01-07T04:15:13.192Z,9.711642
2023-01-07T04:16:13.193Z,9.711742
2023-01-07T04:17:13.162Z,9.711612
2023-01-07T04:18:13.717Z,9.711695
2023-01-07T04:19:13.158Z,9.711611
2023-01-07T04:20:13.818Z,9.711596
2023-01-07T04:21:13.132Z,9.711646
2023-01-07T04:22:13.128Z,9.711669
2023-01-07T04:23:13.116Z,9.711802
2023-01-07T04:24:13.716Z,9.711834
2023-01-07T04:25:13.113Z,9.711777
2023-01-07T04:26:13.193Z,9.711737
2023-01-07T04:27:13.082Z,9.712003
2023-01-07T04:28:13.078Z,9.711973
2023-01-07T04:29:13.072Z,9.711735
2023-01-07T04:30:13.237Z,9.711640
2023-01-07T04:31:13.799Z,9.711866
2023-01-07T04:32:13.040Z,9.711762
2023-01-07T04:33:13.034Z,9.711674
2023-01-07T04:34:13.018Z,9.711570
2023-01-07T04:35:13.029Z,9.711696
2023-01-07T04:36:13.023Z,9.711761
2023-01-07T04:37:12.999Z,9.711698
2023-01-07T04:38:12.991Z,9.711685
2023-01-07T04:39:12.982Z,9.711583
2023-01-07T04:40:12.979Z,9.711572
2023-01-07T04:41:12.971Z,9.711435
2023-01-07T04:42:13.056Z,9.711693
2023-01-07T04:43:12.976Z,9.711818
2023-01-07T04:44:12.942Z,9.711865
2023-01-07T04:45:12.936Z,9.711740
2023-01-07T04:46:12.992Z,9.711494
2023-01-07T04:47:12.915Z,9.711723
2023-01-07T04:48:12.910Z,9.711646
2023-01-07T04:49:12.895Z,9.711786
2023-01-07T04:50:12.907Z,9.711838
2023-01-07T04:51:12.891Z,9.711774
2023-01-07T04:52:12.889Z,9.711836
2023-01-07T04:53:12.872Z,9.711702
2023-01-07T04:54:12.858Z,9.711745
2023-01-07T04:55:12.853Z,9.711724
2023-01-07T04:56:12.855Z,9.711614
2023-01-07T04:57:12.847Z,9.711545
2023-01-07T04:58:13.957Z,9.711719
2023-01-07T04:59:13.807Z,9.711686
2023-01-07T05:00:12.818Z,9.711814
2023-01-07T05:01:12.986Z,9.711706
2023-01-07T05:02:12.869Z,9.711684
2023-01-07T05:03:13.790Z,9.711761
2023-01-07T05:04:12.833Z,9.711770
2023-01-07T05:05:12.791Z,9.711624
2023-01-07T05:06:12.775Z,9.711655
2023-01-07T05:07:13.757Z,9.711751
2023-01-07T05:08:12.752Z,9.711928
2023-01-07T05:09:13.310Z,9.711857
2023-01-07T05:10:12.740Z,9.712049
2023-01-07T05:11:12.733Z,9.711973
2023-01-07T05:12:12.725Z,9.711964
2023-01-07T05:13:12.713Z,9.711866
2023-01-07T05:14:12.820Z,9.711863
2023-01-07T05:15:12.713Z,9.711591
2023-01-07T05:16:12.698Z,9.711656
2023-01-07T05:17:12.683Z,9.711618
2023-01-07T05:18:12.674Z,9.711566
2023-01-07T05:19:12.669Z,9.711539
2023-01-07T05:20:12.665Z,9.711782
2023-01-07T05:21:12.678Z,9.711775
2023-01-07T05:22:13.234Z,9.711347
2023-01-07T05:23:12.634Z,9.711773
2023-01-07T05:24:12.626Z,9.711663
2023-01-07T05:25:12.623Z,9.711151
2023-01-07T05:26:12.643Z,9.711526
2023-01-07T05:27:12.615Z,9.711764
2023-01-07T05:28:13.270Z,9.711612
2023-01-07T05:29:12.589Z,9.711760
2023-01-07T05:30:13.417Z,9.711775
2023-01-07T05:31:12.651Z,9.711772
2023-01-07T05:32:12.564Z,9.711882
2023-01-07T05:33:12.571Z,9.711835
2023-01-07T05:34:12.561Z,9.711740
2023-01-07T05:35:13.236Z,9.711648
2023-01-07T05:36:12.529Z,9.711666
2023-01-07T05:37:12.545Z,9.711777
2023-01-07T05:38:12.536Z,9.711876
2023-01-07T05:39:12.505Z,9.711874
2023-01-07T05:40:12.501Z,9.711775
2023-01-07T05:41:12.494Z,9.711742
2023-01-07T05:42:12.497Z,9.711728
2023-01-07T05:43:12.485Z,9.711742
2023-01-07T05:44:12.487Z,9.711919
2023-01-07T05:45:12.486Z,9.711940
2023-01-07T05:46:12.681Z,9.711798
2023-01-07T05:47:12.461Z,9.711857
2023-01-07T05:48:12.433Z,9.711917
2023-01-07T05:49:12.435Z,9.711782
2023-01-07T05:50:12.432Z,9.711717
2023-01-07T05:51:12.452Z,9.711690
2023-01-07T05:52:12.406Z,9.711662
2023-01-07T05:53:12.402Z,9.711682
2023-01-07T05:54:12.403Z,9.711638
2023-01-07T05:55:12.375Z,9.711654
2023-01-07T05:56:12.383Z,9.711631
2023-01-07T05:57:12.362Z,9.711681
2023-01-07T05:58:12.371Z,9.711683
2023-01-07T05:59:12.351Z,9.711645
2023-01-07T06:00:12.355Z,9.711635
2023-01-07T06:01:13.353Z,9.711629
2023-01-07T06:02:12.417Z,9.711619
2023-01-07T06:03:12.369Z,9.711654
2023-01-07T06:04:12.320Z,9.711689
2023-01-07T06:05:12.822Z,9.711652
2023-01-07T06:06:12.286Z,9.711655
2023-01-07T06:07:12.280Z,9.711617
2023-01-07T06:08:12.272Z,9.711603
2023-01-07T06:09:12.263Z,9.711591
2023-01-07T06:10:12.261Z,9.711614
2023-01-07T06:11:12.246Z,9.711636
2023-01-07T06:12:12.239Z,9.711552
2023-01-07T06:13:12.230Z,9.711595
2023-01-07T06:14:12.222Z,9.711615
2023-01-07T06:15:12.215Z,9.711625
2023-01-07T06:16:12.267Z,9.711619
2023-01-07T06:17:12.211Z,9.711658
2023-01-07T06:18:13.869Z,9.711448
2023-01-07T06:19:12.204Z,9.711556
2023-01-07T06:20:12.751Z,9.711581
2023-01-07T06:21:12.741Z,9.711619
2023-01-07T06:22:12.818Z,9.711560
2023-01-07T06:23:12.145Z,9.711572
2023-01-07T06:24:12.132Z,9.711601
2023-01-07T06:25:12.136Z,9.711486
2023-01-07T06:26:12.131Z,9.711568
2023-01-07T06:27:12.827Z,9.711563
2023-01-07T06:28:12.105Z,9.711583
2023-01-07T06:29:12.103Z,9.711607
2023-01-07T06:30:12.094Z,9.711731
2023-01-07T06:31:12.226Z,9.711694
2023-01-07T06:32:12.073Z,9.711982
2023-01-07T06:33:12.067Z,9.712042
2023-01-07T06:34:12.166Z,9.711948
2023-01-07T06:35:12.054Z,9.711912
2023-01-07T06:36:12.043Z,9.711697
2023-01-07T06:37:12.028Z,9.711691
2023-01-07T06:38:12.033Z,9.711647
2023-01-07T06:39:12.023Z,9.711670
2023-01-07T06:40:12.026Z,9.711511
2023-01-07T06:41:12.017Z,9.711534
2023-01-07T06:42:11.991Z,9.711447
2023-01-07T06:43:11.985Z,9.711606
2023-01-07T06:44:11.975Z,9.712092
2023-01-07T06:45:11.993Z,9.712237
2023-01-07T06:46:12.005Z,9.712301
2023-01-07T06:47:11.955Z,9.712339
2023-01-07T06:48:11.963Z,9.712393
2023-01-07T06:49:11.941Z,9.712338
2023-01-07T06:50:12.035Z,9.712395
2023-01-07T06:51:11.926Z,9.712584
2023-01-07T06:52:11.912Z,9.712040
2023-01-07T06:53:11.901Z,9.711794
2023-01-07T06:54:11.897Z,9.711754
2023-01-07T06:55:11.897Z,9.711804
2023-01-07T06:56:11.885Z,9.711695
2023-01-07T06:57:11.871Z,9.711715
2023-01-07T06:58:11.863Z,9.711769
2023-01-07T06:59:11.859Z,9.711734
2023-01-07T07:00:11.860Z,9.711702
2023-01-07T07:01:11.941Z,9.711673
2023-01-07T07:02:11.884Z,9.711696
2023-01-07T07:03:11.930Z,9.711702
2023-01-07T07:04:11.814Z,9.711697
2023-01-07T07:05:11.805Z,9.711691
2023-01-07T07:06:11.947Z,9.711753
2023-01-07T07:07:11.786Z,9.711762
2023-01-07T07:08:11.784Z,9.711693
2023-01-07T07:09:11.771Z,9.711705
2023-01-07T07:10:11.867Z,9.711711
2023-01-07T07:11:12.776Z,9.711728
2023-01-07T07:12:13.330Z,9.711723
2023-01-07T07:13:11.769Z,9.711698
2023-01-07T07:14:11.727Z,9.711735
2023-01-07T07:15:11.721Z,9.711748
2023-01-07T07:16:11.790Z,9.711704
2023-01-07T07:17:11.704Z,9.711710
2023-01-07T07:18:11.692Z,9.711716
2023-01-07T07:19:12.262Z,9.711699
2023-01-07T07:20:11.676Z,9.711731
2023-01-07T07:21:11.707Z,9.711732
2023-01-07T07:22:11.763Z,9.711712
2023-01-07T07:23:11.653Z,9.711692
2023-01-07T07:24:11.649Z,9.711654
2023-01-07T07:25:11.653Z,9.711674
2023-01-07T07:26:11.628Z,9.711658
2023-01-07T07:27:11.628Z,9.711694
2023-01-07T07:28:11.610Z,9.711658
2023-01-07T07:29:12.600Z,9.711653
2023-01-07T07:30:11.592Z,9.711638
2023-01-07T07:31:11.629Z,9.711700
2023-01-07T07:32:11.608Z,9.711714
2023-01-07T07:33:11.577Z,9.711736
2023-01-07T07:34:11.580Z,9.711693
2023-01-07T07:35:11.552Z,9.711673
2023-01-07T07:36:11.555Z,9.711711
2023-01-07T07:37:11.556Z,9.711658
2023-01-07T07:38:11.636Z,9.711638
2023-01-07T07:39:11.527Z,9.711655
2023-01-07T07:40:11.529Z,9.711702
2023-01-07T07:41:13.259Z,9.711630
2023-01-07T07:42:11.496Z,9.711654
2023-01-07T07:43:14.382Z,9.711669
2023-01-07T07:44:12.491Z,9.711639
2023-01-07T07:45:11.484Z,9.711634
2023-01-07T07:46:11.529Z,9.711624
2023-01-07T07:47:11.453Z,9.711698
2023-01-07T07:48:12.450Z,9.711653
2023-01-07T07:49:11.467Z,9.711628
2023-01-07T07:50:11.439Z,9.711683
2023-01-07T07:51:11.429Z,9.711609
2023-01-07T07:52:11.434Z,9.711776
2023-01-07T07:53:11.408Z,9.711679
2023-01-07T07:54:11.508Z,9.711743
2023-01-07T07:55:20.384Z,9.711697
2023-01-07T07:56:12.399Z,9.711686
2023-01-07T07:57:11.378Z,9.711622
2023-01-07T07:58:14.265Z,9.711616
2023-01-07T07:59:11.365Z,9.711630
2023-01-07T08:00:16.292Z,9.711642
2023-01-07T08:01:13.867Z,9.711572
2023-01-07T08:02:11.446Z,9.711624
2023-01-07T08:03:11.438Z,9.711698
2023-01-07T08:04:11.336Z,9.711687
2023-01-07T08:05:11.317Z,9.711654
2023-01-07T08:06:11.309Z,9.711751
2023-01-07T08:07:11.298Z,9.711711
2023-01-07T08:08:11.289Z,9.711718
2023-01-07T08:09:11.290Z,9.711717
2023-01-07T08:10:11.380Z,9.711574
2023-01-07T08:11:11.263Z,9.711597
2023-01-07T08:12:11.773Z,9.711587
2023-01-07T08:13:11.255Z,9.711623
2023-01-07T08:14:11.246Z,9.711560
2023-01-07T08:15:11.770Z,9.711464
2023-01-07T08:16:11.258Z,9.712210
2023-01-07T08:17:11.219Z,9.711996
2023-01-07T08:18:11.781Z,9.711729
2023-01-07T08:19:11.853Z,9.711683
2023-01-07T08:20:11.187Z,9.711951
2023-01-07T08:21:11.184Z,9.712081
2023-01-07T08:22:11.168Z,9.712190
2023-01-07T08:23:12.173Z,9.711932
2023-01-07T08:24:11.167Z,9.711902
2023-01-07T08:25:11.154Z,9.711772
2023-01-07T08:26:11.252Z,9.711817
2023-01-07T08:27:11.151Z,9.711771
2023-01-07T08:28:11.783Z,9.711729
2023-01-07T08:29:12.149Z,9.711710
2023-01-07T08:30:11.103Z,9.711638
2023-01-07T08:31:11.166Z,9.711606
2023-01-07T08:32:11.095Z,9.711757
2023-01-07T08:33:11.797Z,9.711587
2023-01-07T08:34:11.091Z,9.711581
2023-01-07T08:35:11.070Z,9.711788
2023-01-07T08:36:22.031Z,9.711893
2023-01-07T08:37:13.047Z,9.711795
2023-01-07T08:38:11.043Z,9.711847
2023-01-07T08:39:11.780Z,9.711732
2023-01-07T08:40:11.849Z,9.711952
2023-01-07T08:41:11.016Z,9.711761
2023-01-07T08:42:11.120Z,9.711655
2023-01-07T08:43:11.780Z,9.711666
2023-01-07T08:44:10.988Z,9.711661
2023-01-07T08:45:11.028Z,9.711681
2023-01-07T08:46:10.978Z,9.711687
2023-01-07T08:47:10.970Z,9.711708
2023-01-07T08:48:10.970Z,9.711708
2023-01-07T08:49:10.955Z,9.711730
2023-01-07T08:50:10.949Z,9.711768
2023-01-07T08:51:10.953Z,9.711736
2023-01-07T08:52:10.928Z,9.711688
2023-01-07T08:53:10.927Z,9.711744
2023-01-07T08:54:10.910Z,9.711678
2023-01-07T08:55:10.905Z,9.711692
2023-01-07T08:56:10.917Z,9.711753
2023-01-07T08:57:10.889Z,9.711697
2023-01-07T08:58:10.998Z,9.711714
2023-01-07T08:59:10.877Z,9.711692
2023-01-07T09:00:10.868Z,9.711736
2023-01-07T09:01:11.006Z,9.711716
2023-01-07T09:02:10.996Z,9.711700
2023-01-07T09:03:10.866Z,9.711685
2023-01-07T09:04:10.835Z,9.711651
2023-01-07T09:05:10.825Z,9.711679
2023-01-07T09:06:10.824Z,9.711688
2023-01-07T09:07:11.407Z,9.711723
2023-01-07T09:08:10.815Z,9.711726
2023-01-07T09:09:11.357Z,9.711761
2023-01-07T09:10:10.795Z,9.711711
2023-01-07T09:11:10.783Z,9.711805
2023-01-07T09:12:11.240Z,9.711726
2023-01-07T09:13:11.768Z,9.711699
2023-01-07T09:14:10.849Z,9.711752
2023-01-07T09:15:10.742Z,9.711748
2023-01-07T09:16:10.757Z,9.711703
2023-01-07T09:17:10.727Z,9.711722
2023-01-07T09:18:10.734Z,9.711736
2023-01-07T09:19:10.708Z,9.711792
2023-01-07T09:20:10.718Z,9.711733
2023-01-07T09:21:10.759Z,9.711782
2023-01-07T09:22:10.683Z,9.711709
2023-01-07T09:23:10.699Z,9.711707
2023-01-07T09:24:10.674Z,9.711720
2023-01-07T09:25:10.694Z,9.711872
2023-01-07T09:26:10.657Z,9.711783
2023-01-07T09:27:10.654Z,9.711682
2023-01-07T09:28:13.286Z,9.711638
2023-01-07T09:29:43.947Z,9.711654
2023-01-07T09:30:10.634Z,9.711619
2023-01-07T09:31:10.706Z,9.711652
2023-01-07T09:32:10.664Z,9.711725
2023-01-07T09:33:10.599Z,9.711666
2023-01-07T09:34:12.416Z,9.711747
2023-01-07T09:35:10.585Z,9.711780
2023-01-07T09:36:10.597Z,9.711642
2023-01-07T09:37:10.591Z,9.711747
2023-01-07T09:38:10.567Z,9.711768
2023-01-07T09:39:10.547Z,9.711675
2023-01-07T09:40:10.556Z,9.711767
2023-01-07T09:41:10.553Z,9.711575
2023-01-07T09:42:10.544Z,9.711595
2023-01-07T09:43:10.524Z,9.711653
2023-01-07T09:44:10.513Z,9.711584
2023-01-07T09:45:10.611Z,9.711126
2023-01-07T09:46:10.512Z,9.711438
2023-01-07T09:47:10.483Z,9.711661
2023-01-07T09:48:10.482Z,9.711896
2023-01-07T09:49:12.393Z,9.711857
2023-01-07T09:50:11.332Z,9.711905
2023-01-07T09:51:12.408Z,9.711620
2023-01-07T09:52:10.448Z,9.711633
2023-01-07T09:53:10.483Z,9.711564
2023-01-07T09:54:10.442Z,9.711523
2023-01-07T09:55:12.407Z,9.711679
2023-01-07T09:56:12.881Z,9.711641
2023-01-07T09:57:10.400Z,9.711637
2023-01-07T09:58:10.917Z,9.711632
2023-01-07T09:59:10.414Z,9.711617
2023-01-07T10:00:10.372Z,9.711647
2023-01-07T10:01:10.502Z,9.711668
2023-01-07T10:02:10.360Z,9.711667
2023-01-07T10:03:12.331Z,9.711707
2023-01-07T10:04:10.400Z,9.711708
2023-01-07T10:05:10.339Z,9.711748
2023-01-07T10:06:10.328Z,9.711721
2023-01-07T10:07:10.313Z,9.711702
2023-01-07T10:08:31.551Z,9.711667
2023-01-07T10:09:11.306Z,9.711730
2023-01-07T10:10:10.323Z,9.711713
2023-01-07T10:11:10.289Z,9.711719
2023-01-07T10:12:10.289Z,9.711728
2023-01-07T10:13:10.269Z,9.711679
2023-01-07T10:14:10.261Z,9.711724
2023-01-07T10:15:10.256Z,9.711691
2023-01-07T10:16:11.935Z,9.711727
2023-01-07T10:17:12.040Z,9.711733
2023-01-07T10:18:11.903Z,9.711749
2023-01-07T10:19:10.228Z,9.711745
2023-01-07T10:20:10.209Z,9.711779
2023-01-07T10:21:10.207Z,9.711767
2023-01-07T10:22:10.203Z,9.711688
2023-01-07T10:23:10.208Z,9.711706
2023-01-07T10:24:10.181Z,9.711716
2023-01-07T10:25:11.954Z,9.711711
2023-01-07T10:26:10.176Z,9.711766
2023-01-07T10:27:10.173Z,9.711743
2023-01-07T10:28:10.158Z,9.711763
2023-01-07T10:29:10.147Z,9.711647
2023-01-07T10:30:10.139Z,9.711764
2023-01-07T10:31:10.832Z,9.711775
2023-01-07T10:32:10.909Z,9.711655
2023-01-07T10:33:10.264Z,9.711754
2023-01-07T10:34:10.914Z,9.711611
2023-01-07T10:35:10.084Z,9.711654
2023-01-07T10:36:10.837Z,9.711669
2023-01-07T10:37:11.903Z,9.711721
2023-01-07T10:38:10.065Z,9.711714
2023-01-07T10:39:10.925Z,9.711779
2023-01-07T10:40:10.051Z,9.711823
2023-01-07T10:41:10.056Z,9.711790
2023-01-07T21:39:04.730Z,9.714179
2023-01-07T21:40:04.785Z,9.714054
2023-01-07T21:41:04.718Z,9.713969
2023-01-07T21:42:04.832Z,9.713941
2023-01-07T21:43:04.683Z,9.714131
2023-01-07T21:44:04.681Z,9.714280
2023-01-07T21:45:04.669Z,9.711479
2023-01-07T21:46:04.719Z,9.711473
2023-01-07T21:47:04.662Z,9.711491
2023-01-07T21:48:04.654Z,9.711610
2023-01-07T21:49:04.638Z,9.711524
2023-01-07T21:50:04.649Z,9.711539
2023-01-07T21:51:04.623Z,9.711486
2023-01-07T21:52:04.622Z,9.711476
2023-01-07T21:53:04.614Z,9.711455
2023-01-07T21:54:04.606Z,9.711512
2023-01-07T21:55:04.591Z,9.711483
2023-01-07T21:56:04.576Z,9.711449
2023-01-07T21:57:06.105Z,9.711483
2023-01-07T21:58:04.667Z,9.711508
2023-01-07T21:59:04.624Z,9.711534
2023-01-07T22:00:04.554Z,9.711501
2023-01-07T22:01:04.653Z,9.711533
2023-01-07T22:02:04.925Z,9.711573
2023-01-07T22:03:04.541Z,9.711565
2023-01-07T22:04:04.646Z,9.711599
2023-01-07T22:05:06.179Z,9.711587
2023-01-07T22:06:04.499Z,9.711587
2023-01-07T22:07:04.494Z,9.711592
2023-01-07T22:08:04.499Z,9.711597
2023-01-07T22:09:05.175Z,9.711653
2023-01-07T22:10:05.476Z,9.711642
2023-01-07T22:11:04.492Z,9.711624
2023-01-07T22:12:04.453Z,9.711678
2023-01-07T22:13:04.453Z,9.711671
2023-01-07T22:14:04.567Z,9.711639
2023-01-07T22:15:04.435Z,9.711634
2023-01-07T22:16:04.497Z,9.711618
2023-01-07T22:17:04.419Z,9.711613
2023-01-07T22:18:04.405Z,9.711651
2023-01-07T22:19:04.419Z,9.711646
2023-01-07T22:20:04.391Z,9.711637
2023-01-07T22:21:04.397Z,9.711613
2023-01-07T22:22:04.387Z,9.711644
2023-01-07T22:23:04.362Z,9.711705
2023-01-07T22:24:04.365Z,9.711724
2023-01-07T22:25:04.353Z,9.711684
2023-01-07T22:26:04.347Z,9.711695
2023-01-07T22:27:04.374Z,9.711692
2023-01-07T22:28:04.348Z,9.711837
2023-01-07T22:29:04.332Z,9.711954
2023-01-07T22:30:06.212Z,9.711960
2023-01-07T22:31:04.461Z,9.711922
2023-01-07T22:32:04.335Z,9.711829
2023-01-07T22:33:04.290Z,9.711935
2023-01-07T22:34:04.707Z,9.711972
2023-01-07T22:35:04.499Z,9.711993
2023-01-07T22:36:04.262Z,9.711942
2023-01-07T22:37:04.265Z,9.711939
2023-01-07T22:38:05.259Z,9.711962
2023-01-07T22:39:06.252Z,9.711813
2023-01-07T22:40:04.265Z,9.712109
2023-01-07T22:41:04.220Z,9.712209
2023-01-07T22:42:04.215Z,9.712046
2023-01-07T22:43:04.222Z,9.712083
2023-01-07T22:44:04.220Z,9.711967
2023-01-07T22:45:04.193Z,9.711928
2023-01-07T22:46:04.341Z,9.711859
2023-01-07T22:47:04.179Z,9.711911
2023-01-07T22:48:04.163Z,9.712060
2023-01-07T22:49:04.162Z,9.712245
2023-01-07T22:50:04.693Z,9.712198
2023-01-07T22:51:04.140Z,9.712047
2023-01-07T22:52:04.141Z,9.711929
2023-01-07T22:53:04.123Z,9.711864
2023-01-07T22:54:04.116Z,9.711663
2023-01-07T22:55:04.121Z,9.711610
2023-01-07T22:56:04.618Z,9.711675
2023-01-07T22:57:05.091Z,9.711632
2023-01-07T22:58:04.080Z,9.711658
2023-01-07T22:59:04.081Z,9.711638
2023-01-07T23:00:04.061Z,9.711675
2023-01-07T23:01:04.088Z,9.711641
2023-01-07T23:02:04.154Z,9.711592
2023-01-07T23:03:04.131Z,9.711600
2023-01-07T23:04:04.791Z,9.711619
2023-01-07T23:05:04.021Z,9.711669
2023-01-07T23:06:04.020Z,9.711615
2023-01-07T23:07:04.001Z,9.711494
2023-01-07T23:08:04.669Z,9.711526
2023-01-07T23:09:04.007Z,9.711626
2023-01-07T23:10:03.994Z,9.711668
2023-01-07T23:11:03.976Z,9.711685
2023-01-07T23:12:03.964Z,9.711722
2023-01-07T23:13:03.958Z,9.711678
2023-01-07T23:14:03.996Z,9.711654
2023-01-07T23:15:03.944Z,9.711654
2023-01-07T23:16:04.013Z,9.711714
2023-01-07T23:17:03.924Z,9.711656
2023-01-07T23:18:04.124Z,9.711718
2023-01-07T23:19:03.901Z,9.711622
2023-01-07T23:20:03.903Z,9.711636